ROMMA est une association bénévole à but non lucratif. Votre soutien est indispensable : ADHERER à ROMMA ou FAIRE un DON

Nice - (06, Alpes-Maritimes)

Côte-d'Azur (190 m)   Longitude: 07° 14' E   Latitude: 43° 43' N Station partenaire n°136
 

Détail journalier du     <<     >>

Température Precipitation Humidité Pression Vent Dir Rafale Dir. rafale Ensol.
Heure (°C) (mm) (%) (hPa) (km/h) (km/h) (min)
01:00 16.905410166NNO18NNO0
02:00 15.006110173N8N0
03:00 15.505810176N16NNO0
04:00 14.606110174N11NNE0
05:00 14.806010174NNO10NNO0
06:00 15.105810175NNO13NNO0
07:00 15.205510176NNO18NNO0
08:00 15.405510188NNO18NNO0
09:00 17.105410185NNO16NNO30
10:00 19.105410194NNE11NNE60
11:00 20.705710194ESE10E60
12:00 21.605610198SE16SE60
13:00 21.905210199SE21SE60
14:00 21.206110189SE19SE60
15:00 21.606410189SE21SE60
16:00 20.706810189SSE19SSE60
17:00 19.8067101810SSE21SSE60
18:00 18.607110179SSE21SSE0
19:00 17.707310175SSE16SSE0
20:00 17.307510182S10SSE0
21:00 16.407810182NNE6NE0
22:00 15.808010181NNE5NNE0
23:00 15.308210181---6NNE0
minuit 15.208210181---6NNO0

Graphique du 08-10-2019

 

Serveur OMMA